Time;durP1;ratioP1;P1;durP2;ratioP2;P2;SDS_P1;SDS_P2;PMS_P1;PMS_P2;Temp;Humidity;BMP_temperature;BMP_pressure;BME280_temperature;BME280_humidity;BME280_pressure;Samples;Min_cycle;Max_cycle;Signal;HPM_P1;HPM_P2
2022/05/31 00:00:54;;;;;;;3.67;2.70;;;;;;;13.54;68.86;97725.63;4125863;28;20630;-88
2022/05/31 00:02:58;;;;;;;3.10;2.50;;;;;;;13.54;68.82;97723.81;4110006;28;20694;-88
2022/05/31 00:05:02;;;;;;;4.03;2.80;;;;;;;13.57;68.69;97728.81;4111605;28;20621;-89
2022/05/31 00:07:05;;;;;;;3.10;2.80;;;;;;;13.55;69.43;97728.13;4088909;29;20660;-88
2022/05/31 00:09:10;;;;;;;3.53;2.90;;;;;;;13.51;68.65;97720.66;4093999;28;20653;-88
2022/05/31 00:11:28;;;;;;;3.10;2.57;;;;;;;13.50;68.42;97718.97;4107658;28;20650;-89
2022/05/31 00:13:31;;;;;;;3.07;2.60;;;;;;;13.50;68.45;97721.59;4121585;28;20685;-88
2022/05/31 00:15:34;;;;;;;4.23;3.33;;;;;;;13.53;69.76;97723.94;4125162;28;20694;-89
2022/05/31 00:17:39;;;;;;;3.53;2.80;;;;;;;13.54;68.58;97723.00;4101466;28;20638;-89
2022/05/31 00:19:42;;;;;;;4.90;2.90;;;;;;;13.55;68.68;97719.44;4114529;28;20725;-89
2022/05/31 00:21:50;;;;;;;3.70;2.90;;;;;;;13.53;69.65;97719.56;4101829;28;21480;-88
2022/05/31 00:23:54;;;;;;;3.13;2.80;;;;;;;13.56;69.48;97727.16;4110401;28;20721;-89
2022/05/31 00:25:58;;;;;;;3.63;3.23;;;;;;;13.58;68.97;97725.22;4111782;28;20634;-88
2022/05/31 00:28:01;;;;;;;5.00;3.17;;;;;;;13.57;68.12;97718.31;4114304;28;21236;-89
2022/05/31 00:30:06;;;;;;;4.43;3.30;;;;;;;13.57;69.72;97723.56;4111175;28;20638;-88
2022/05/31 00:32:11;;;;;;;4.60;3.23;;;;;;;13.58;68.69;97732.28;4107327;28;20634;-89
2022/05/31 00:34:15;;;;;;;4.03;3.20;;;;;;;13.57;69.82;97714.88;4096373;28;21256;-89
2022/05/31 00:36:18;;;;;;;5.13;3.27;;;;;;;13.50;70.05;97719.81;4124905;28;21036;-88
2022/05/31 00:38:23;;;;;;;5.50;3.27;;;;;;;13.49;69.96;97722.56;4113389;28;21749;-88
2022/05/31 00:40:29;;;;;;;4.50;3.03;;;;;;;13.50;70.65;97716.34;4127273;28;20663;-88
2022/05/31 00:42:51;;;;;;;3.73;2.87;;;;;;;13.48;68.81;97718.28;4111592;28;20969;-89
2022/05/31 00:44:54;;;;;;;4.17;2.97;;;;;;;13.45;69.90;97715.94;4124647;28;20621;-88
2022/05/31 00:47:03;;;;;;;3.90;3.50;;;;;;;13.47;69.98;97719.25;4112006;28;20715;-88
2022/05/31 00:49:07;;;;;;;4.23;3.13;;;;;;;13.47;72.07;97716.63;4113008;28;20645;-88
2022/05/31 00:51:13;;;;;;;3.20;2.87;;;;;;;13.43;70.71;97717.88;4111386;28;20634;-89
2022/05/31 00:53:36;;;;;;;3.70;3.17;;;;;;;13.43;71.35;97710.00;4110294;28;20666;-88
2022/05/31 00:55:43;;;;;;;4.47;3.13;;;;;;;13.40;70.94;97718.13;4099763;28;20651;-88
2022/05/31 00:57:50;;;;;;;6.30;3.87;;;;;;;13.33;72.13;97716.97;4126609;28;21091;-88
2022/05/31 00:59:58;;;;;;;4.57;3.53;;;;;;;13.25;72.70;97716.81;4112660;28;20672;-88
2022/05/31 01:02:02;;;;;;;4.30;3.83;;;;;;;13.18;72.07;97718.28;4129263;28;20647;-89
2022/05/31 01:04:05;;;;;;;4.10;3.70;;;;;;;13.08;73.16;97712.16;4108127;28;20676;-88
2022/05/31 01:06:10;;;;;;;5.00;3.53;;;;;;;12.99;71.95;97710.31;4093659;28;21130;-88
2022/05/31 01:08:14;;;;;;;5.10;3.73;;;;;;;12.94;71.58;97714.28;4090245;28;20634;-88
2022/05/31 01:10:43;;;;;;;3.50;3.20;;;;;;;12.89;71.86;97714.66;4128685;28;21221;-89
2022/05/31 01:13:11;;;;;;;3.80;3.40;;;;;;;12.86;70.62;97714.09;4127833;28;20638;-88
2022/05/31 01:15:37;;;;;;;3.30;3.00;;;;;;;12.90;71.24;97713.72;4103787;28;20661;-89
2022/05/31 01:17:59;;;;;;;4.07;3.20;;;;;;;12.95;70.72;97711.53;4122656;28;20645;-88
2022/05/31 01:20:06;;;;;;;3.60;3.10;;;;;;;13.02;70.48;97706.59;4111121;28;20738;-89
2022/05/31 01:22:19;;;;;;;4.20;3.10;;;;;;;13.06;70.12;97714.06;4091898;28;20654;-89
2022/05/31 01:24:24;;;;;;;6.23;3.17;;;;;;;13.13;69.63;97720.47;4124053;28;20634;-88
2022/05/31 01:26:36;;;;;;;7.87;3.37;;;;;;;13.10;69.40;97709.41;4098636;28;20729;-88
2022/05/31 01:28:53;;;;;;;4.97;2.97;;;;;;;13.07;69.57;97720.16;4105987;28;20635;-88
2022/05/31 01:30:59;;;;;;;5.30;3.53;;;;;;;13.10;71.30;97712.88;4111040;28;20741;-88
2022/05/31 01:33:06;;;;;;;6.60;3.83;;;;;;;12.96;70.84;97709.72;4089656;28;20810;-89
2022/05/31 01:35:18;;;;;;;6.00;3.90;;;;;;;12.88;71.72;97710.38;4130213;28;21371;-89
2022/05/31 01:37:23;;;;;;;4.17;3.77;;;;;;;12.80;71.86;97710.16;4108327;28;20621;-88
2022/05/31 01:39:31;;;;;;;4.63;3.90;;;;;;;12.74;72.10;97709.84;4112562;28;20636;-88
2022/05/31 01:41:38;;;;;;;4.43;4.03;;;;;;;12.65;73.18;97709.78;4109253;28;20711;-89
2022/05/31 01:43:43;;;;;;;10.20;5.30;;;;;;;12.57;73.56;97714.78;4092976;29;20639;-89
2022/05/31 01:45:50;;;;;;;6.47;4.40;;;;;;;12.46;72.75;97717.47;4127417;28;20626;-88
2022/05/31 01:47:54;;;;;;;4.33;3.90;;;;;;;12.33;73.74;97701.13;4095973;28;21432;-88
2022/05/31 01:49:58;;;;;;;4.43;3.80;;;;;;;12.28;75.25;97708.50;4095308;28;20641;-88
2022/05/31 01:52:07;;;;;;;4.60;4.10;;;;;;;12.23;74.14;97706.25;4118012;28;20643;-89
2022/05/31 01:54:11;;;;;;;4.90;3.87;;;;;;;12.19;74.31;97711.84;4113076;28;20644;-88
2022/05/31 01:56:14;;;;;;;4.00;3.70;;;;;;;12.17;73.76;97711.16;4110362;28;20674;-89
2022/05/31 01:58:20;;;;;;;5.50;3.87;;;;;;;12.18;75.79;97715.44;4115001;28;20643;-89
2022/05/31 02:00:23;;;;;;;5.43;4.10;;;;;;;12.13;75.34;97720.19;4114800;28;21283;-88
2022/05/31 02:02:27;;;;;;;5.30;4.20;;;;;;;12.12;76.35;97722.94;4098667;28;20667;-88
2022/05/31 02:04:30;;;;;;;4.70;3.97;;;;;;;12.07;76.12;97722.47;4127411;28;20717;-88
2022/05/31 02:06:35;;;;;;;4.73;4.23;;;;;;;12.02;75.70;97722.84;4112078;28;20661;-88
2022/05/31 02:08:40;;;;;;;6.00;4.77;;;;;;;11.96;76.94;97718.09;4108655;28;21250;-89
2022/05/31 02:10:44;;;;;;;6.30;4.50;;;;;;;11.93;76.76;97722.75;4096594;28;20673;-89
2022/05/31 02:12:48;;;;;;;5.27;4.13;;;;;;;11.86;76.04;97719.81;4093193;28;21852;-89
2022/05/31 02:15:03;;;;;;;5.73;4.20;;;;;;;11.78;76.59;97716.94;4127036;28;20647;-89
2022/05/31 02:17:07;;;;;;;4.60;4.20;;;;;;;11.70;77.97;97720.28;4111091;28;20652;-89
2022/05/31 02:19:25;;;;;;;5.20;4.20;;;;;;;11.66;77.63;97708.44;4104394;28;21088;-88
2022/05/31 02:21:37;;;;;;;5.53;4.20;;;;;;;11.57;77.56;97706.53;4096262;28;20644;-89
2022/05/31 02:23:43;;;;;;;6.10;4.50;;;;;;;11.51;77.78;97704.41;4114464;28;21014;-88
2022/05/31 02:25:46;;;;;;;5.20;4.13;;;;;;;11.49;78.17;97701.91;4100464;28;21191;-89
2022/05/31 02:27:49;;;;;;;5.50;4.50;;;;;;;11.46;78.39;97714.34;4124338;28;20690;-88
2022/05/31 02:29:53;;;;;;;9.33;4.60;;;;;;;11.41;77.59;97709.50;4122198;28;20666;-89
2022/05/31 02:31:58;;;;;;;6.20;4.20;;;;;;;11.35;78.99;97703.88;4094911;28;20634;-89
2022/05/31 02:34:02;;;;;;;4.43;4.03;;;;;;;11.29;77.68;97705.22;4111011;28;20692;-89
2022/05/31 02:36:05;;;;;;;7.10;4.60;;;;;;;11.27;79.22;97700.22;4092373;28;20656;-88
2022/05/31 02:38:08;;;;;;;5.80;3.80;;;;;;;11.25;78.06;97692.50;4125809;28;20636;-88
2022/05/31 02:40:13;;;;;;;6.40;4.37;;;;;;;11.22;79.11;97691.94;4109983;28;21304;-89
2022/05/31 02:42:17;;;;;;;5.13;4.37;;;;;;;11.19;79.68;97690.38;4110774;28;21285;-89
2022/05/31 02:44:21;;;;;;;6.80;4.40;;;;;;;11.23;78.68;97691.81;4110678;28;20683;-89
2022/05/31 02:46:25;;;;;;;4.63;4.13;;;;;;;11.20;78.78;97693.81;4125724;28;20773;-89
2022/05/31 02:48:29;;;;;;;7.33;4.40;;;;;;;11.17;79.53;97694.03;4109614;28;20643;-89
2022/05/31 02:50:32;;;;;;;4.63;3.90;;;;;;;11.12;78.73;97694.41;4128532;28;20633;-88
2022/05/31 02:52:35;;;;;;;4.90;4.47;;;;;;;11.07;79.32;97678.25;4109144;28;20643;-88
2022/05/31 02:54:39;;;;;;;6.33;4.53;;;;;;;11.01;79.32;97686.56;4088500;28;20622;-88
2022/05/31 02:56:58;;;;;;;6.97;4.40;;;;;;;11.00;80.06;97687.50;4126150;28;20674;-88
2022/05/31 02:59:20;;;;;;;6.27;3.93;;;;;;;10.98;79.58;97685.97;4127626;28;20646;-88
2022/05/31 03:01:58;;;;;;;5.67;4.40;;;;;;;10.97;80.15;97686.91;4122312;28;20647;-89
2022/05/31 03:04:20;;;;;;;4.63;4.23;;;;;;;10.95;80.39;97686.22;4122683;28;20663;-89
2022/05/31 03:06:49;;;;;;;6.30;4.60;;;;;;;10.92;80.47;97687.25;4127054;28;20662;-89
2022/05/31 03:08:53;;;;;;;5.03;4.53;;;;;;;10.92;80.28;97699.50;4107536;28;20640;-89
2022/05/31 03:11:09;;;;;;;5.30;4.33;;;;;;;10.92;80.67;97697.69;4092840;28;20656;-88
2022/05/31 03:13:16;;;;;;;4.40;4.00;;;;;;;10.91;80.79;97706.47;4111022;28;21049;-88
2022/05/31 03:15:20;;;;;;;4.40;4.00;;;;;;;10.90;81.23;97704.00;4123514;28;20634;-89
2022/05/31 03:17:27;;;;;;;5.13;3.57;;;;;;;10.90;80.65;97711.81;4106461;28;20990;-89
2022/05/31 03:19:34;;;;;;;4.60;3.97;;;;;;;10.90;81.02;97709.22;4125387;28;20645;-89
2022/05/31 03:21:40;;;;;;;6.40;4.60;;;;;;;10.86;80.71;97706.00;4105862;28;20636;-88
2022/05/31 03:23:45;;;;;;;7.03;4.43;;;;;;;10.87;80.13;97712.88;4091972;28;20649;-89
2022/05/31 03:25:50;;;;;;;5.40;4.20;;;;;;;10.84;80.64;97715.72;4093658;29;20692;-89
2022/05/31 03:27:56;;;;;;;6.00;4.33;;;;;;;10.80;80.54;97716.06;4125361;28;20646;-88
2022/05/31 03:30:01;;;;;;;5.60;4.23;;;;;;;10.73;81.57;97716.63;4126360;28;20661;-89
2022/05/31 03:32:07;;;;;;;6.50;4.47;;;;;;;10.71;81.39;97711.53;4126365;28;20623;-89
2022/05/31 03:34:10;;;;;;;4.73;4.17;;;;;;;10.66;81.27;97710.19;4125528;28;20647;-89
2022/05/31 03:36:14;;;;;;;5.47;4.40;;;;;;;10.64;81.33;97712.94;4126778;28;20679;-88
2022/05/31 03:38:26;;;;;;;5.00;4.53;;;;;;;10.62;81.75;97703.56;4118607;28;20640;-89
2022/05/31 03:42:52;;;;;;;5.80;4.50;;;;;;;10.57;82.01;97719.56;4105243;28;21277;-88
2022/05/31 03:44:56;;;;;;;5.00;4.40;;;;;;;10.59;81.24;97717.66;4092016;28;20672;-89
2022/05/31 03:47:19;;;;;;;4.50;4.00;;;;;;;10.57;81.56;97729.13;4123394;28;20668;-89
2022/05/31 03:49:23;;;;;;;5.60;5.00;;;;;;;10.56;82.54;97724.88;4112060;28;20720;-89
2022/05/31 03:51:34;;;;;;;5.00;4.20;;;;;;;10.54;82.26;97731.97;4107162;28;21077;-88
2022/05/31 03:53:45;;;;;;;6.60;4.70;;;;;;;10.50;82.24;97727.94;4126798;28;20651;-89
2022/05/31 03:55:48;;;;;;;5.20;4.23;;;;;;;10.47;82.49;97734.22;4129581;28;21055;-88
2022/05/31 03:57:53;;;;;;;5.40;4.70;;;;;;;10.48;83.19;97737.66;4109265;28;21004;-89
2022/05/31 04:00:40;;;;;;;5.40;4.87;;;;;;;10.53;82.48;97732.94;4117522;28;20637;-89
2022/05/31 04:02:59;;;;;;;5.30;4.80;;;;;;;10.59;83.37;97733.31;4112610;28;20694;-88
2022/05/31 04:05:03;;;;;;;7.00;4.90;;;;;;;10.67;83.71;97722.31;4097623;28;20646;-88
2022/05/31 04:07:06;;;;;;;5.23;4.73;;;;;;;10.71;82.86;97727.19;4093454;29;20784;-89
2022/05/31 04:09:09;;;;;;;5.60;5.00;;;;;;;10.78;82.65;97732.75;4108969;28;20727;-88
2022/05/31 04:11:13;;;;;;;5.47;4.37;;;;;;;10.83;82.78;97734.91;4126633;28;20725;-89
2022/05/31 04:13:17;;;;;;;5.60;4.93;;;;;;;10.88;81.87;97735.41;4123455;28;20639;-88
2022/05/31 04:16:03;;;;;;;5.77;5.10;;;;;;;10.87;81.08;97725.09;4103125;28;20651;-88
2022/05/31 04:18:10;;;;;;;5.43;4.37;;;;;;;10.89;81.97;97721.41;4130219;28;21070;-89
2022/05/31 04:20:14;;;;;;;6.03;4.70;;;;;;;10.94;82.43;97724.50;4111911;28;20640;-88
2022/05/31 04:22:17;;;;;;;6.93;5.00;;;;;;;11.00;82.98;97734.47;4111506;28;21303;-89
2022/05/31 04:24:22;;;;;;;5.27;4.60;;;;;;;11.05;82.52;97729.75;4109481;28;20989;-89
2022/05/31 04:26:58;;;;;;;5.87;5.27;;;;;;;11.12;82.29;97722.28;4103290;28;20658;-88
2022/05/31 04:29:13;;;;;;;6.20;5.20;;;;;;;11.16;82.98;97718.50;4109038;28;20640;-89
2022/05/31 04:31:36;;;;;;;7.10;5.77;;;;;;;11.20;82.92;97718.16;4117421;28;20647;-88
2022/05/31 04:34:05;;;;;;;5.83;5.10;;;;;;;11.27;82.01;97716.72;4099613;28;20651;-89
2022/05/31 04:36:10;;;;;;;6.00;5.40;;;;;;;11.35;83.32;97720.41;4114858;28;20638;-89
2022/05/31 04:38:13;;;;;;;6.53;5.83;;;;;;;11.42;82.48;97716.34;4110854;28;20719;-88
2022/05/31 04:40:24;;;;;;;8.73;5.60;;;;;;;11.50;81.68;97723.63;4127409;28;20637;-89
2022/05/31 04:42:48;;;;;;;9.10;6.07;;;;;;;11.51;81.80;97725.28;4111243;28;21155;-88
2022/05/31 04:45:14;;;;;;;5.80;5.20;;;;;;;11.55;81.76;97724.94;4094756;28;20640;-89
2022/05/31 04:47:17;;;;;;;7.50;5.60;;;;;;;11.65;81.28;97728.50;4106493;28;20638;-88
2022/05/31 04:49:26;;;;;;;6.30;5.70;;;;;;;11.74;81.92;97721.72;4113582;28;20642;-89
2022/05/31 04:51:32;;;;;;;8.07;5.60;;;;;;;11.80;80.45;97720.28;4097355;28;21084;-89
2022/05/31 04:53:36;;;;;;;5.73;5.10;;;;;;;11.83;81.26;97727.03;4104946;28;21095;-88
2022/05/31 04:56:07;;;;;;;6.70;6.00;;;;;;;11.87;80.31;97718.81;4126442;28;20661;-88
2022/05/31 04:58:19;;;;;;;6.50;5.90;;;;;;;11.92;80.29;97708.00;4088040;29;20672;-91
2022/05/31 05:00:22;;;;;;;6.70;5.13;;;;;;;11.96;80.08;97710.25;4111118;28;21204;-91
2022/05/31 05:02:34;;;;;;;7.87;5.83;;;;;;;11.97;80.43;97703.28;4125455;28;20631;-89
2022/05/31 05:04:43;;;;;;;6.53;5.53;;;;;;;11.97;80.21;97704.09;4093960;28;20642;-92
2022/05/31 05:06:57;;;;;;;6.70;5.40;;;;;;;11.97;81.79;97693.63;4093988;28;21135;-92
2022/05/31 05:09:01;;;;;;;6.87;5.87;;;;;;;11.98;81.19;97692.69;4123060;28;20686;-92
2022/05/31 05:11:07;;;;;;;6.90;5.50;;;;;;;12.00;82.60;97687.34;4111204;28;20654;-92
2022/05/31 05:13:17;;;;;;;7.13;5.60;;;;;;;11.99;82.47;97686.50;4110346;28;20652;-93
2022/05/31 05:15:39;;;;;;;6.83;5.10;;;;;;;12.06;80.52;97684.25;4126305;28;20631;-92
2022/05/31 05:17:43;;;;;;;6.50;5.90;;;;;;;12.09;81.69;97684.81;4093703;28;20662;-92
2022/05/31 05:19:48;;;;;;;6.60;5.97;;;;;;;12.18;81.80;97686.69;4094408;28;20642;-92
2022/05/31 05:21:53;;;;;;;6.23;5.63;;;;;;;12.26;81.38;97684.25;4128881;28;20702;-92
2022/05/31 05:23:56;;;;;;;8.07;5.60;;;;;;;12.36;82.34;97682.56;4111324;28;20624;-92
2022/05/31 05:26:08;;;;;;;6.33;5.70;;;;;;;12.46;81.46;97675.63;4124127;28;20639;-92
2022/05/31 05:30:55;;;;;;;5.23;4.73;;;;;;;12.70;80.24;97685.72;4128533;28;20643;-92
2022/05/31 05:32:58;;;;;;;7.07;5.47;;;;;;;12.81;79.59;97687.44;4112620;28;20632;-92
2022/05/31 05:35:09;;;;;;;6.07;5.43;;;;;;;13.00;78.86;97688.41;4092174;28;20633;-92
2022/05/31 05:37:13;;;;;;;8.60;5.67;;;;;;;13.16;79.90;97691.41;4123903;28;21059;-93
2022/05/31 05:39:16;;;;;;;6.33;5.27;;;;;;;13.37;79.14;97702.66;4096183;28;20770;-92
2022/05/31 05:41:39;;;;;;;12.17;5.53;;;;;;;13.65;78.85;97705.38;4109200;28;20674;-93
2022/05/31 05:44:02;;;;;;;7.53;5.70;;;;;;;13.99;77.32;97707.56;4094166;28;22535;-94
2022/05/31 05:46:13;;;;;;;10.10;5.87;;;;;;;14.37;76.88;97705.88;4073620;29;20647;-90
2022/05/31 05:48:17;;;;;;;9.00;5.60;;;;;;;14.75;76.92;97695.34;4093194;29;20628;-92
2022/05/31 05:50:22;;;;;;;5.97;5.37;;;;;;;15.11;75.52;97693.63;4088781;29;21114;-90
2022/05/31 05:52:25;;;;;;;5.97;5.37;;;;;;;15.42;74.58;97696.88;4095180;28;20650;-91
2022/05/31 05:54:47;;;;;;;5.60;5.10;;;;;;;15.80;73.89;97701.00;4108773;28;21255;-93
2022/05/31 05:57:12;;;;;;;6.13;5.53;;;;;;;16.25;73.27;97712.38;4112682;28;20643;-93
2022/05/31 05:59:34;;;;;;;6.83;4.80;;;;;;;16.49;70.98;97717.91;4109410;28;21237;-92
2022/05/31 06:01:58;;;;;;;6.83;5.67;;;;;;;16.31;70.63;97710.00;4091740;29;20670;-90
2022/05/31 06:04:46;;;;;;;7.03;5.43;;;;;;;16.65;71.84;97706.53;4097343;28;20737;-91
2022/05/31 06:06:56;;;;;;;6.10;5.20;;;;;;;16.70;72.27;97712.19;4107439;28;20670;-92
2022/05/31 06:09:03;;;;;;;6.67;5.20;;;;;;;16.72;70.64;97715.50;4094328;29;20653;-91
2022/05/31 06:11:09;;;;;;;6.33;5.20;;;;;;;16.98;71.76;97719.81;4124824;28;20637;-91
2022/05/31 06:13:15;;;;;;;6.90;5.50;;;;;;;17.42;71.36;97718.03;4089053;28;20648;-90
2022/05/31 06:15:22;;;;;;;5.50;5.00;;;;;;;17.69;70.48;97722.13;4125518;28;20635;-91
2022/05/31 06:17:31;;;;;;;5.60;4.80;;;;;;;17.97;68.88;97726.22;4103847;28;20627;-93
2022/05/31 06:19:36;;;;;;;5.83;4.80;;;;;;;18.22;67.63;97722.69;4123652;28;20657;-91
2022/05/31 06:21:39;;;;;;;5.17;4.53;;;;;;;18.41;66.50;97718.78;4107050;28;20640;-91
2022/05/31 06:24:01;;;;;;;6.57;4.87;;;;;;;18.62;65.87;97711.25;4109399;28;20654;-92
2022/05/31 06:26:07;;;;;;;6.80;5.70;;;;;;;18.94;67.17;97714.75;4116546;28;20702;-92
2022/05/31 06:28:14;;;;;;;5.83;4.60;;;;;;;19.25;68.18;97714.94;4096547;29;20659;-92
2022/05/31 06:30:17;;;;;;;5.40;4.40;;;;;;;19.61;66.35;97723.13;4105277;28;20681;-92
2022/05/31 06:32:22;;;;;;;5.63;4.90;;;;;;;19.95;62.92;97726.34;4093830;28;20743;-89
2022/05/31 06:34:32;;;;;;;4.67;4.27;;;;;;;19.74;63.50;97720.78;4091203;29;20655;-92
2022/05/31 06:37:04;;;;;;;5.40;4.30;;;;;;;19.38;65.09;97716.06;4112381;28;20693;-91
2022/05/31 06:39:10;;;;;;;4.53;4.00;;;;;;;19.48;65.35;97720.19;4123797;28;20757;-94
2022/05/31 06:41:13;;;;;;;4.87;4.10;;;;;;;19.37;66.62;97719.69;4110761;28;20692;-93
2022/05/31 06:43:17;;;;;;;7.40;4.10;;;;;;;19.21;65.89;97717.06;4113106;28;20650;-95
2022/05/31 06:45:39;;;;;;;4.80;4.20;;;;;;;19.37;67.45;97718.88;4127906;28;20640;-92
2022/05/31 06:48:01;;;;;;;6.87;4.40;;;;;;;19.42;68.72;97715.56;4114769;28;21376;-93
2022/05/31 06:50:36;;;;;;;5.63;4.73;;;;;;;19.31;65.21;97717.72;4095186;28;21208;-93
2022/05/31 06:58:01;;;;;;;6.60;4.67;;;;;;;19.49;65.93;97715.72;4132589;28;20676;-95
2022/05/31 07:00:31;;;;;;;5.17;4.57;;;;;;;19.37;66.65;97712.56;4112724;28;21110;-93
2022/05/31 07:02:34;;;;;;;7.53;4.43;;;;;;;19.25;65.98;97717.56;4098340;28;21213;-93
2022/05/31 07:04:38;;;;;;;5.40;4.63;;;;;;;19.50;66.76;97718.19;4111419;28;20645;-93
2022/05/31 07:06:42;;;;;;;5.60;5.10;;;;;;;19.46;67.30;97716.84;4125575;28;21308;-94
2022/05/31 07:09:15;;;;;;;4.70;4.20;;;;;;;19.51;65.25;97722.47;4105772;28;20637;-94
2022/05/31 07:11:20;;;;;;;5.70;3.93;;;;;;;19.38;63.13;97708.94;4089832;28;20648;-93
2022/05/31 07:13:42;;;;;;;5.97;4.37;;;;;;;19.46;64.36;97716.84;4113066;28;20998;-93
2022/05/31 07:15:52;;;;;;;7.87;4.40;;;;;;;19.60;64.33;97708.22;4104737;28;21276;-92
2022/05/31 07:18:33;;;;;;;4.60;3.93;;;;;;;19.92;65.27;97708.16;4124293;28;20657;-92
2022/05/31 07:20:37;;;;;;;4.57;4.17;;;;;;;20.11;66.47;97710.41;4096282;29;20638;-93
2022/05/31 07:22:40;;;;;;;4.73;4.23;;;;;;;20.56;65.91;97709.47;4119990;28;20681;-93
2022/05/31 07:25:03;;;;;;;4.60;4.10;;;;;;;20.74;63.23;97704.75;4091259;28;21196;-93
2022/05/31 07:27:15;;;;;;;4.53;3.50;;;;;;;21.14;61.74;97699.09;4123746;28;20632;-93
2022/05/31 07:29:19;;;;;;;4.17;3.70;;;;;;;21.36;60.96;97707.03;4127127;28;20635;-93
2022/05/31 07:31:23;;;;;;;3.73;3.40;;;;;;;21.44;60.74;97706.94;4093513;28;20705;-93
2022/05/31 07:33:38;;;;;;;6.17;3.37;;;;;;;21.55;60.17;97704.72;4102751;28;20643;-93
2022/05/31 07:35:45;;;;;;;4.30;3.40;;;;;;;21.77;59.41;97703.81;4090592;28;20737;-93
2022/05/31 07:37:49;;;;;;;4.20;3.50;;;;;;;21.73;60.22;97697.22;4104624;28;20666;-93
2022/05/31 07:39:56;;;;;;;4.50;3.40;;;;;;;21.89;59.51;97694.38;4107705;28;21243;-93
2022/05/31 07:42:00;;;;;;;3.63;3.17;;;;;;;22.13;61.12;97689.59;4102068;28;20635;-93
2022/05/31 07:44:06;;;;;;;2.97;2.67;;;;;;;22.46;59.49;97699.63;4092389;28;20625;-94
2022/05/31 07:46:13;;;;;;;3.63;2.47;;;;;;;22.82;57.76;97692.44;4111390;28;21091;-93
2022/05/31 07:48:40;;;;;;;3.33;2.57;;;;;;;22.93;60.31;97687.47;4090990;28;20708;-94
2022/05/31 07:51:15;;;;;;;2.73;2.53;;;;;;;23.20;61.53;97690.16;4110141;28;21050;-93
2022/05/31 07:53:47;;;;;;;2.53;2.03;;;;;;;23.56;59.77;97690.84;4089480;28;20670;-94
2022/05/31 07:56:23;;;;;;;3.07;2.10;;;;;;;23.88;56.43;97691.06;4096938;28;20613;-93
2022/05/31 07:59:01;;;;;;;2.77;2.27;;;;;;;24.20;58.93;97698.41;4129817;28;21088;-94
2022/05/31 08:01:15;;;;;;;4.70;4.30;;;;;;;24.50;58.60;97705.94;4110254;28;20655;-94
2022/05/31 08:03:22;;;;;;;4.00;2.13;;;;;;;24.40;55.79;97697.50;4105548;28;20643;-94
2022/05/31 08:05:25;;;;;;;3.57;2.10;;;;;;;24.33;55.37;97696.66;4107993;28;21013;-93
2022/05/31 08:07:28;;;;;;;3.63;2.30;;;;;;;24.24;54.44;97691.66;4107575;28;20703;-95
2022/05/31 08:09:49;;;;;;;3.10;2.23;;;;;;;24.32;54.33;97703.00;4095594;28;21315;-94
2022/05/31 08:11:53;;;;;;;4.93;2.00;;;;;;;24.37;55.68;97692.56;4108218;28;21236;-93
2022/05/31 08:14:01;;;;;;;2.60;1.97;;;;;;;24.38;55.84;97686.19;4126300;28;21014;-94
2022/05/31 08:16:05;;;;;;;5.10;2.40;;;;;;;24.63;55.31;97690.00;4105928;28;20717;-94
2022/05/31 08:18:10;;;;;;;3.57;2.20;;;;;;;24.86;56.48;97690.44;4123858;28;21099;-94
2022/05/31 08:20:16;;;;;;;3.63;1.80;;;;;;;25.13;56.18;97686.81;4120919;28;20650;-94
2022/05/31 08:22:20;;;;;;;3.00;2.20;;;;;;;25.26;53.29;97683.13;4124453;28;20650;-94
2022/05/31 08:24:23;;;;;;;3.23;1.90;;;;;;;25.38;54.10;97686.81;4119398;28;20629;-93
2022/05/31 08:26:52;;;;;;;3.20;1.90;;;;;;;25.55;52.49;97692.56;4120458;28;20981;-93
2022/05/31 08:28:56;;;;;;;2.63;2.00;;;;;;;25.69;55.37;97684.34;4126571;28;20630;-94
2022/05/31 08:31:01;;;;;;;2.60;1.90;;;;;;;25.80;53.01;97691.72;4107672;28;20642;-94
2022/05/31 08:33:41;;;;;;;3.43;2.00;;;;;;;25.87;51.85;97682.66;4092981;29;20663;-95
2022/05/31 08:35:44;;;;;;;2.93;2.07;;;;;;;25.78;51.62;97677.75;4088195;29;20752;-93
2022/05/31 08:38:06;;;;;;;2.40;2.10;;;;;;;25.80;51.21;97667.66;4097030;28;20635;-94
2022/05/31 08:40:11;;;;;;;2.97;2.00;;;;;;;25.83;50.66;97672.56;4108869;28;20665;-94
2022/05/31 08:42:16;;;;;;;2.37;1.90;;;;;;;25.90;53.10;97668.03;4093588;28;20628;-94
2022/05/31 08:44:37;;;;;;;2.70;2.13;;;;;;;25.94;50.63;97667.41;4113357;28;20643;-94
2022/05/31 08:46:50;;;;;;;2.70;2.00;;;;;;;25.73;49.29;97658.84;4098035;28;20628;-94
2022/05/31 08:48:58;;;;;;;2.07;1.63;;;;;;;25.74;49.48;97655.97;4122968;28;20681;-94
2022/05/31 08:53:32;;;;;;;2.10;1.67;;;;;;;25.85;51.66;97657.97;4107147;28;20637;-95
2022/05/31 08:58:09;;;;;;;2.80;1.63;;;;;;;26.09;50.18;97655.44;4097997;28;21276;-95
2022/05/31 09:00:15;;;;;;;2.33;2.07;;;;;;;26.13;53.01;97661.16;4097276;28;20668;-95
2022/05/31 09:02:22;;;;;;;3.00;2.00;;;;;;;26.24;51.89;97664.00;4128137;28;20684;-94
2022/05/31 09:04:45;;;;;;;3.23;1.90;;;;;;;26.05;51.08;97663.28;4111797;28;21095;-94
2022/05/31 09:06:50;;;;;;;3.10;2.10;;;;;;;25.91;52.79;97667.03;4096836;28;20793;-94
2022/05/31 09:09:01;;;;;;;2.33;1.80;;;;;;;26.04;54.40;97662.47;4113754;28;20643;-94
2022/05/31 09:11:26;;;;;;;3.27;2.17;;;;;;;26.21;52.25;97669.78;4127810;28;20703;-94
2022/05/31 09:13:35;;;;;;;3.20;2.17;;;;;;;26.11;53.32;97669.41;4111473;28;20670;-95
2022/05/31 09:15:42;;;;;;;2.33;2.07;;;;;;;25.83;52.87;97669.91;4107439;28;20741;-95
2022/05/31 09:17:58;;;;;;;2.33;1.93;;;;;;;25.56;52.49;97668.31;4126301;28;20623;-95
2022/05/31 09:20:04;;;;;;;2.20;1.97;;;;;;;25.40;56.20;97674.06;4111120;28;20750;-94
2022/05/31 09:22:09;;;;;;;3.53;2.30;;;;;;;25.30;54.65;97667.50;4109263;28;20990;-93
2022/05/31 09:24:14;;;;;;;2.67;2.27;;;;;;;25.27;55.10;97670.56;4131199;28;20740;-94
2022/05/31 09:26:41;;;;;;;3.13;2.33;;;;;;;25.66;56.18;97672.22;4112778;28;20667;-94
2022/05/31 09:28:49;;;;;;;3.67;2.60;;;;;;;25.62;55.32;97672.81;4104763;28;20660;-94
2022/05/31 09:30:53;;;;;;;3.20;2.43;;;;;;;25.86;55.26;97673.00;4126789;28;20644;-94
2022/05/31 09:33:06;;;;;;;3.20;2.50;;;;;;;25.88;55.90;97673.59;4124032;28;20649;-95
2022/05/31 09:35:52;;;;;;;3.80;2.60;;;;;;;26.01;56.21;97672.72;4104820;28;20651;-93
2022/05/31 09:39:01;;;;;;;2.90;2.40;;;;;;;26.03;53.06;97665.34;4046237;29;21060;-93
2022/05/31 09:41:11;;;;;;;3.20;2.90;;;;;;;26.08;54.59;97664.50;4014538;29;20672;-94
2022/05/31 09:43:20;;;;;;;3.70;2.40;;;;;;;26.25;55.02;97671.00;4037317;29;20650;-95
2022/05/31 09:45:25;;;;;;;2.53;2.33;;;;;;;26.26;53.79;97672.63;4090285;28;21061;-95
2022/05/31 09:47:29;;;;;;;2.73;2.20;;;;;;;26.29;54.55;97671.44;4074806;29;20672;-94
2022/05/31 09:49:39;;;;;;;3.90;2.60;;;;;;;26.14;52.12;97674.31;4090443;28;20687;-94
2022/05/31 09:51:44;;;;;;;3.03;2.60;;;;;;;25.87;53.43;97663.13;4089090;28;20648;-93
2022/05/31 09:59:48;;;;;;;3.40;2.80;;;;;;;25.21;56.19;97658.03;4073649;28;20641;-94
2022/05/31 10:02:21;;;;;;;2.90;2.60;;;;;;;25.36;55.81;97667.47;4069928;29;21009;-94
2022/05/31 10:04:27;;;;;;;7.07;6.00;;;;;;;25.54;57.20;97656.97;4102406;28;20632;-93
2022/05/31 10:06:32;;;;;;;3.50;2.57;;;;;;;25.58;54.98;97668.09;4120247;28;21089;-94
2022/05/31 10:08:38;;;;;;;3.67;2.60;;;;;;;25.64;53.72;97671.59;4108249;28;20639;-94
2022/05/31 10:10:45;;;;;;;6.33;3.33;;;;;;;25.47;51.95;97658.88;4128651;28;20631;-93
2022/05/31 10:12:51;;;;;;;6.83;4.40;;;;;;;25.42;55.53;97660.50;4105311;28;20690;-94
2022/05/31 10:14:55;;;;;;;2.87;2.57;;;;;;;25.58;54.01;97667.03;4106906;28;20725;-93
2022/05/31 10:17:15;;;;;;;3.70;2.70;;;;;;;25.77;54.13;97660.03;4091466;28;20736;-94
2022/05/31 10:19:23;;;;;;;5.10;3.17;;;;;;;25.75;54.73;97665.59;4111339;28;21011;-95
2022/05/31 10:21:32;;;;;;;4.00;2.60;;;;;;;25.79;54.83;97660.69;4092470;28;21041;-93
2022/05/31 10:23:39;;;;;;;4.50;3.10;;;;;;;25.70;55.35;97660.06;4104582;28;21330;-94
2022/05/31 10:26:01;;;;;;;4.17;3.10;;;;;;;25.71;54.41;97658.25;4124553;28;20643;-94
2022/05/31 10:28:29;;;;;;;5.23;2.87;;;;;;;25.59;54.37;97660.69;4118617;28;21238;-94
2022/05/31 10:30:36;;;;;;;4.07;3.23;;;;;;;25.62;53.94;97654.13;4111576;28;20644;-94
2022/05/31 10:32:54;;;;;;;4.27;3.13;;;;;;;25.59;52.90;97646.50;4104332;28;21029;-94
2022/05/31 10:35:13;;;;;;;5.72;2.80;;;;;;;25.62;54.64;97648.78;4090512;28;20768;-94
2022/05/31 10:37:24;;;;;;;5.30;3.47;;;;;;;25.72;52.74;97655.31;4091655;28;20205;-94